Pen Duick III — FW3531 — position and weather

sailwx.info

Track history (hours):
 
Tides and Currents Weather Stations Pressure Air Temp Water Temp Dewpoint Dewpoint Depression Visibility Wind Speed Wind Dir Waves Ship Positions

Pen Duick III

Last reported at 2017-Sep-20 12:43 UTC. Time now 2017-Sep-23 16:33 UTC.
Position N 47°44' W 003°22'.

Length 18 m.

Type: Sailing vessel. MMSI: 227510570.

Date/timePositionNaut miles runAvg speedWind from/ knotsBaromVisibWave heightAir tempDewpointWater temp
2017-Sep-20 12:43N 47°44' W 003°22'0 0.0
2017-Sep-20 12:25N 47°44' W 003°22'0 0.0
2017-Sep-20 11:55N 47°44' W 003°22'0 0.0
2017-Sep-20 11:25N 47°44' W 003°22'0 0.0
2017-Sep-20 10:43N 47°44' W 003°22'0 0.0
2017-Sep-20 10:25N 47°44' W 003°22'0 0.0
2017-Sep-20 09:58N 47°44' W 003°22'  
2017-Sep-18 04:46N 47°44' W 003°22'1 3.2
2017-Sep-18 04:30N 47°43' W 003°22'2 4.8
2017-Sep-18 04:00N 47°41' W 003°24'3 6.2
2017-Sep-18 03:30N 47°40' W 003°29'3 6.3
2017-Sep-18 03:00N 47°40' W 003°33'3 6.4
2017-Sep-18 02:28N 47°40' W 003°38'45 5.3
2017-Sep-17 17:57N 47°54' W 004°42'3 7.1
2017-Sep-17 17:30N 47°57' W 004°43'4 8.1
2017-Sep-17 17:00N 48°01' W 004°46'5 9.0
2017-Sep-17 16:30N 48°06' W 004°46'4 8.3
2017-Sep-17 16:00N 48°10' W 004°46'9 8.0
2017-Sep-17 14:54N 48°19' W 004°47'6 7.4
2017-Sep-17 14:04N 48°25' W 004°49'1 6.5
2017-Sep-17 13:54N 48°26' W 004°49'1 3.6
2017-Sep-17 13:30N 48°27' W 004°49'3 6.3
2017-Sep-17 13:00N 48°30' W 004°49'3 5.2
2017-Sep-17 12:29N 48°33' W 004°48'2 5.1
2017-Sep-17 12:00N 48°35' W 004°46'3 5.1
2017-Sep-17 11:25N 48°37' W 004°43'  
2017-Sep-15 06:49N 49°47' W 001°53'3 8.7
2017-Sep-15 06:30N 49°48' W 001°49'4 6.9
2017-Sep-15 05:59N 49°45' W 001°47'3 6.3
2017-Sep-15 05:29N 49°44' W 001°42'2 4.5
2017-Sep-15 05:00N 49°44' W 001°39'3 5.8
2017-Sep-15 04:30N 49°41' W 001°39'2 4.4
2017-Sep-15 04:00N 49°39' W 001°37'1 1.6
2017-Sep-15 03:29N 49°39' W 001°37'  
Track history (hours):
 
Tides and Currents Weather Stations Pressure Air Temp Water Temp Dewpoint Dewpoint Depression Visibility Wind Speed Wind Dir Waves Ship Positions

Pen Duick III

Last reported at 2017-Sep-20 12:43 UTC. Time now 2017-Sep-23 16:33 UTC.
Position N 47°44' W 003°22'.

Length 18 m.

Type: Sailing vessel. MMSI: 227510570.

Date/timePositionNaut miles runAvg speedWind from/ knotsBaromVisibWave heightAir tempDewpointWater temp
2017-Sep-20 12:43N 47°44' W 003°22'0 0.0
2017-Sep-20 12:25N 47°44' W 003°22'0 0.0
2017-Sep-20 11:55N 47°44' W 003°22'0 0.0
2017-Sep-20 11:25N 47°44' W 003°22'0 0.0
2017-Sep-20 10:43N 47°44' W 003°22'0 0.0
2017-Sep-20 10:25N 47°44' W 003°22'0 0.0
2017-Sep-20 09:58N 47°44' W 003°22'  
2017-Sep-18 04:46N 47°44' W 003°22'1 3.2
2017-Sep-18 04:30N 47°43' W 003°22'2 4.8
2017-Sep-18 04:00N 47°41' W 003°24'3 6.2
2017-Sep-18 03:30N 47°40' W 003°29'3 6.3
2017-Sep-18 03:00N 47°40' W 003°33'3 6.4
2017-Sep-18 02:28N 47°40' W 003°38'45 5.3
2017-Sep-17 17:57N 47°54' W 004°42'3 7.1
2017-Sep-17 17:30N 47°57' W 004°43'4 8.1
2017-Sep-17 17:00N 48°01' W 004°46'5 9.0
2017-Sep-17 16:30N 48°06' W 004°46'4 8.3
2017-Sep-17 16:00N 48°10' W 004°46'9 8.0
2017-Sep-17 14:54N 48°19' W 004°47'6 7.4
2017-Sep-17 14:04N 48°25' W 004°49'1 6.5
2017-Sep-17 13:54N 48°26' W 004°49'1 3.6
2017-Sep-17 13:30N 48°27' W 004°49'3 6.3
2017-Sep-17 13:00N 48°30' W 004°49'3 5.2
2017-Sep-17 12:29N 48°33' W 004°48'2 5.1
2017-Sep-17 12:00N 48°35' W 004°46'3 5.1
2017-Sep-17 11:25N 48°37' W 004°43'  
2017-Sep-15 06:49N 49°47' W 001°53'3 8.7
2017-Sep-15 06:30N 49°48' W 001°49'4 6.9
2017-Sep-15 05:59N 49°45' W 001°47'3 6.3
2017-Sep-15 05:29N 49°44' W 001°42'2 4.5
2017-Sep-15 05:00N 49°44' W 001°39'3 5.8
2017-Sep-15 04:30N 49°41' W 001°39'2 4.4
2017-Sep-15 04:00N 49°39' W 001°37'1 1.6
2017-Sep-15 03:29N 49°39' W 001°37'  

Dump ship's entire track history